createdAt,value
2018-12-25T00:03:55.831Z,5.63
2018-12-25T00:09:02.615Z,7.43
2018-12-25T00:14:08.500Z,6.63
2018-12-25T00:19:15.976Z,6.57
2018-12-25T00:24:29.466Z,5.27
2018-12-25T00:29:35.751Z,5.43
2018-12-25T00:34:42.481Z,6.73
2018-12-25T00:39:47.994Z,5.73
2018-12-25T00:44:57.679Z,5.30
2018-12-25T00:50:04.584Z,5.30
2018-12-25T00:55:10.654Z,5.80
2018-12-25T01:00:17.427Z,5.33
2018-12-25T01:05:22.987Z,6.80
2018-12-25T01:10:29.520Z,5.43
2018-12-25T01:15:35.305Z,6.03
2018-12-25T01:20:43.109Z,5.30
2018-12-25T01:25:48.200Z,6.10
2018-12-25T01:30:54.625Z,5.53
2018-12-25T01:35:59.086Z,8.10
2018-12-25T01:41:04.813Z,5.90
2018-12-25T01:46:14.686Z,5.10
2018-12-25T01:51:20.991Z,5.60
2018-12-25T01:56:25.829Z,5.57
2018-12-25T02:01:32.712Z,7.83
2018-12-25T02:06:38.316Z,5.40
2018-12-25T02:11:44.472Z,6.63
2018-12-25T02:16:56.556Z,6.30
2018-12-25T02:22:02.228Z,6.47
2018-12-25T02:27:09.763Z,7.07
2018-12-25T02:32:17.300Z,6.90
2018-12-25T02:37:23.080Z,5.27
2018-12-25T02:42:29.195Z,6.80
2018-12-25T02:47:36.183Z,6.97
2018-12-25T02:52:43.582Z,6.83
2018-12-25T02:57:53.724Z,6.13
2018-12-25T03:03:02.009Z,7.00
2018-12-25T03:08:08.688Z,5.73
2018-12-25T03:13:14.371Z,7.27
2018-12-25T03:18:21.173Z,8.13
2018-12-25T03:23:28.379Z,6.13
2018-12-25T03:28:33.115Z,7.70
2018-12-25T03:33:40.313Z,8.00
2018-12-25T03:38:46.140Z,7.93
2018-12-25T03:43:58.776Z,7.60
2018-12-25T03:49:07.112Z,6.97
2018-12-25T03:54:14.075Z,8.10
2018-12-25T03:59:21.071Z,8.33
2018-12-25T04:04:29.046Z,7.73
2018-12-25T04:09:34.462Z,7.70
2018-12-25T04:14:41.003Z,7.20
2018-12-25T04:19:48.272Z,8.63
2018-12-25T04:25:39.359Z,8.83
2018-12-25T04:30:48.814Z,7.70
2018-12-25T04:35:56.109Z,7.63
2018-12-25T04:41:02.233Z,9.83
2018-12-25T04:46:08.196Z,9.07
2018-12-25T04:51:15.061Z,10.60
2018-12-25T04:56:21.927Z,8.13
2018-12-25T05:01:30.706Z,9.07
2018-12-25T05:06:36.446Z,9.37
2018-12-25T05:11:43.069Z,8.20
2018-12-25T05:16:50.162Z,12.73
2018-12-25T05:22:08.007Z,9.87
2018-12-25T05:27:14.011Z,9.57
2018-12-25T05:32:20.181Z,8.50
2018-12-25T05:37:28.173Z,9.83
2018-12-25T05:42:33.235Z,10.00
2018-12-25T05:47:38.612Z,10.10
2018-12-25T05:52:44.330Z,9.13
2018-12-25T05:57:50.760Z,8.77
2018-12-25T06:03:03.024Z,10.53
2018-12-25T06:08:08.669Z,9.40
2018-12-25T06:13:14.905Z,9.27
2018-12-25T06:18:21.312Z,9.50
2018-12-25T06:23:27.590Z,10.30
2018-12-25T06:28:34.621Z,8.83
2018-12-25T06:33:40.494Z,9.73
2018-12-25T06:38:47.865Z,10.67
2018-12-25T06:43:53.610Z,10.50
2018-12-25T06:49:00.876Z,9.57
2018-12-25T06:54:06.850Z,12.63
2018-12-25T06:59:12.999Z,9.43
2018-12-25T07:04:21.103Z,8.97
2018-12-25T07:09:28.718Z,11.47
2018-12-25T07:14:35.068Z,10.43
2018-12-25T07:19:40.744Z,8.93
2018-12-25T07:24:48.333Z,11.23
2018-12-25T07:29:55.651Z,10.17
2018-12-25T07:35:02.189Z,11.00
2018-12-25T07:40:09.094Z,12.00
2018-12-25T07:45:15.371Z,13.60
2018-12-25T07:50:21.669Z,13.90
2018-12-25T07:55:27.653Z,12.60
2018-12-25T08:00:34.176Z,11.30
2018-12-25T08:05:41.113Z,13.23
2018-12-25T08:10:46.665Z,13.00
2018-12-25T08:15:54.647Z,12.60
2018-12-25T08:21:01.039Z,11.30
2018-12-25T08:26:08.380Z,13.63
2018-12-25T08:31:17.193Z,13.17
2018-12-25T08:36:22.839Z,12.30
2018-12-25T08:41:28.817Z,11.70
2018-12-25T08:46:37.792Z,14.63
2018-12-25T08:51:43.965Z,14.93
2018-12-25T08:56:49.766Z,13.87
2018-12-25T09:01:57.617Z,12.53
2018-12-25T09:07:03.353Z,13.03
2018-12-25T09:12:09.246Z,12.70
2018-12-25T09:17:15.693Z,14.67
2018-12-25T09:22:26.073Z,11.90
2018-12-25T09:27:31.829Z,11.73
2018-12-25T09:32:37.620Z,12.87
2018-12-25T09:37:43.347Z,12.87
2018-12-25T09:42:49.150Z,14.43
2018-12-25T09:47:55.638Z,13.57
2018-12-25T09:53:01.189Z,11.93
2018-12-25T09:58:07.244Z,13.10
2018-12-25T10:03:13.032Z,14.07
2018-12-25T10:08:18.384Z,15.33
2018-12-25T10:13:24.793Z,13.07
2018-12-25T10:18:30.829Z,14.67
2018-12-25T10:23:37.278Z,15.07
2018-12-25T10:28:43.582Z,16.73
2018-12-25T10:33:49.121Z,14.83
2018-12-25T10:38:55.951Z,20.13
2018-12-25T10:44:04.316Z,16.10
2018-12-25T10:49:10.377Z,12.83
2018-12-25T10:54:16.198Z,15.50
2018-12-25T10:59:21.944Z,14.73
2018-12-25T11:04:28.909Z,15.37
2018-12-25T11:09:34.460Z,13.97
2018-12-25T11:14:45.334Z,13.83
2018-12-25T11:19:52.685Z,15.23
2018-12-25T11:24:58.032Z,14.03
2018-12-25T11:30:06.966Z,10.90
2018-12-25T11:35:13.780Z,14.33
2018-12-25T11:40:21.722Z,11.67
2018-12-25T11:45:28.654Z,13.30
2018-12-25T11:50:34.943Z,12.90
2018-12-25T11:55:42.156Z,11.40
2018-12-25T12:00:47.728Z,13.97
2018-12-25T12:05:55.501Z,12.43
2018-12-25T12:11:01.871Z,11.40
2018-12-25T12:16:12.557Z,11.67
2018-12-25T12:21:18.778Z,11.17
2018-12-25T12:26:24.837Z,14.13
2018-12-25T12:31:33.687Z,12.03
2018-12-25T12:36:39.734Z,12.60
2018-12-25T12:41:46.208Z,12.17
2018-12-25T12:46:52.324Z,9.63
2018-12-25T12:51:58.717Z,12.03
2018-12-25T12:57:04.428Z,12.27
2018-12-25T13:02:11.600Z,13.57
2018-12-25T13:07:18.957Z,11.93
2018-12-25T13:12:24.773Z,12.80
2018-12-25T13:17:47.886Z,12.53
2018-12-25T13:22:54.540Z,11.63
2018-12-25T13:28:00.282Z,12.83
2018-12-25T13:33:07.323Z,13.73
2018-12-25T13:38:13.611Z,13.37
2018-12-25T13:43:19.381Z,19.83
2018-12-25T13:48:25.598Z,12.77
2018-12-25T13:53:32.759Z,15.67
2018-12-25T13:58:40.547Z,14.07
2018-12-25T14:03:46.479Z,17.17
2018-12-25T14:08:52.272Z,15.40
2018-12-25T14:13:57.729Z,13.60
2018-12-25T14:19:05.612Z,15.40
2018-12-25T14:24:11.618Z,15.17
2018-12-25T14:29:18.030Z,15.53
2018-12-25T14:34:23.085Z,13.90
2018-12-25T14:39:29.401Z,15.23
2018-12-25T14:44:36.920Z,14.67
2018-12-25T14:49:44.301Z,14.60
2018-12-25T14:54:51.299Z,13.63
2018-12-25T15:00:18.545Z,14.60
2018-12-25T15:05:24.821Z,14.20
2018-12-25T15:10:30.925Z,12.83
2018-12-25T15:15:37.876Z,14.03
2018-12-25T15:20:44.266Z,12.83
2018-12-25T15:25:51.088Z,10.93
2018-12-25T15:30:57.469Z,13.57
2018-12-25T15:36:03.425Z,12.73
2018-12-25T15:41:09.924Z,13.20
2018-12-25T15:46:16.837Z,12.43
2018-12-25T15:51:25.775Z,12.73
2018-12-25T15:56:32.627Z,11.23
2018-12-25T16:01:39.586Z,10.73
2018-12-25T16:06:46.449Z,13.17
2018-12-25T16:11:51.901Z,14.23
2018-12-25T16:16:57.806Z,13.33
2018-12-25T16:22:04.108Z,11.40
2018-12-25T16:27:10.357Z,13.63
2018-12-25T16:32:17.231Z,14.60
2018-12-25T16:37:23.965Z,14.20
2018-12-25T16:42:30.592Z,15.97
2018-12-25T16:47:36.806Z,18.80
2018-12-25T16:52:43.178Z,16.53
2018-12-25T16:58:03.223Z,15.13
2018-12-25T17:03:09.451Z,16.10
2018-12-25T17:08:15.741Z,13.73
2018-12-25T17:13:22.335Z,15.07
2018-12-25T17:18:28.674Z,17.97
2018-12-25T17:24:26.688Z,15.83
2018-12-25T17:29:32.863Z,14.03
2018-12-25T17:34:39.731Z,20.53
2018-12-25T17:39:45.992Z,18.10
2018-12-25T17:44:52.796Z,18.37
2018-12-25T17:49:59.099Z,16.03
2018-12-25T17:55:04.439Z,15.83
2018-12-25T18:00:25.897Z,15.40
2018-12-25T18:05:33.966Z,14.70
2018-12-25T18:10:38.857Z,15.37
2018-12-25T18:16:05.649Z,16.87
2018-12-25T18:21:14.374Z,16.70
2018-12-25T18:26:19.950Z,16.40
2018-12-25T18:31:26.578Z,16.90
2018-12-25T18:36:33.304Z,14.97
2018-12-25T18:41:40.292Z,14.40
2018-12-25T18:46:47.536Z,15.20
2018-12-25T18:51:54.104Z,16.10
2018-12-25T18:57:00.863Z,17.07
2018-12-25T19:02:10.356Z,17.00
2018-12-25T19:07:16.364Z,14.27
2018-12-25T19:12:22.659Z,16.40
2018-12-25T19:17:28.566Z,14.70
2018-12-25T19:22:35.357Z,13.57
2018-12-25T19:27:47.374Z,13.47
2018-12-25T19:32:54.637Z,14.63
2018-12-25T19:38:01.750Z,11.40
2018-12-25T19:43:08.173Z,12.63
2018-12-25T19:48:15.385Z,12.30
2018-12-25T19:53:22.477Z,13.10
2018-12-25T19:58:28.981Z,11.57
2018-12-25T20:04:06.801Z,14.83
2018-12-25T20:09:49.010Z,13.43
2018-12-25T20:15:44.098Z,13.97
2018-12-25T20:21:25.120Z,14.40
2018-12-25T20:26:59.558Z,13.03
2018-12-25T20:32:42.817Z,13.03
2018-12-25T20:38:19.878Z,16.37
2018-12-25T20:43:56.687Z,15.03
2018-12-25T20:49:27.826Z,15.07
2018-12-25T20:55:28.644Z,16.63
2018-12-25T21:01:11.557Z,19.37
2018-12-25T21:06:54.381Z,18.20
2018-12-25T21:12:44.779Z,20.37
2018-12-25T21:18:28.499Z,19.27
2018-12-25T21:24:09.163Z,20.83
2018-12-25T21:29:15.790Z,17.77
2018-12-25T21:34:24.885Z,18.47
2018-12-25T21:39:30.969Z,21.03
2018-12-25T21:44:37.300Z,22.80
2018-12-25T21:49:48.545Z,18.13
2018-12-25T21:54:57.265Z,20.93
2018-12-25T22:00:04.181Z,18.73
2018-12-25T22:05:10.101Z,18.70
2018-12-25T22:10:16.692Z,21.17
2018-12-25T22:15:23.600Z,20.90
2018-12-25T22:20:36.690Z,20.23
2018-12-25T22:25:43.202Z,19.40
2018-12-25T22:30:51.365Z,19.43
2018-12-25T22:35:59.655Z,19.93
2018-12-25T22:41:06.964Z,19.37
2018-12-25T22:46:16.134Z,19.93
2018-12-25T22:51:23.321Z,20.83
2018-12-25T22:56:31.078Z,21.63
2018-12-25T23:01:37.938Z,20.77
2018-12-25T23:06:44.823Z,21.97
2018-12-25T23:11:51.244Z,22.27
2018-12-25T23:16:58.554Z,23.00
2018-12-25T23:22:06.202Z,22.53
2018-12-25T23:27:11.689Z,24.27
2018-12-25T23:32:18.905Z,23.60
2018-12-25T23:37:25.674Z,25.07
2018-12-25T23:42:32.652Z,23.33
2018-12-25T23:47:38.494Z,22.63
2018-12-25T23:52:45.950Z,22.57
2018-12-25T23:57:51.939Z,24.13
